createdAt,value
2019-03-25T00:00:13.363Z,14.90
2019-03-25T00:01:13.351Z,13.80
2019-03-25T00:02:13.340Z,11.20
2019-03-25T00:03:13.363Z,14.20
2019-03-25T00:04:13.329Z,10.10
2019-03-25T00:05:13.347Z,12.90
2019-03-25T00:06:13.303Z,11.90
2019-03-25T00:07:13.293Z,12.00
2019-03-25T00:08:13.292Z,15.20
2019-03-25T00:09:13.270Z,12.90
2019-03-25T00:10:13.265Z,13.20
2019-03-25T00:11:13.247Z,15.40
2019-03-25T00:12:13.240Z,10.60
2019-03-25T00:13:13.241Z,13.10
2019-03-25T00:14:13.218Z,10.40
2019-03-25T00:15:13.211Z,12.80
2019-03-25T00:16:13.188Z,16.10
2019-03-25T00:17:13.238Z,15.80
2019-03-25T00:18:13.227Z,12.20
2019-03-25T00:19:13.197Z,16.20
2019-03-25T00:20:13.150Z,16.70
2019-03-25T00:21:13.142Z,14.30
2019-03-25T00:22:13.136Z,17.00
2019-03-25T00:23:13.189Z,14.10
2019-03-25T00:24:13.111Z,12.70
2019-03-25T00:25:13.219Z,10.80
2019-03-25T00:26:13.083Z,12.70
2019-03-25T00:27:13.089Z,14.40
2019-03-25T00:28:13.853Z,15.90
2019-03-25T00:29:13.050Z,14.10
2019-03-25T00:30:13.042Z,14.50
2019-03-25T00:31:13.032Z,16.40
2019-03-25T00:32:13.025Z,13.10
2019-03-25T00:33:13.019Z,11.80
2019-03-25T00:34:12.992Z,12.30
2019-03-25T00:35:12.989Z,10.70
2019-03-25T00:36:12.974Z,11.50
2019-03-25T00:37:12.977Z,13.40
2019-03-25T00:38:13.000Z,12.10
2019-03-25T00:39:12.941Z,17.80
2019-03-25T00:40:12.937Z,16.80
2019-03-25T00:41:12.915Z,11.10
2019-03-25T00:42:12.919Z,11.20
2019-03-25T00:43:12.895Z,14.70
2019-03-25T00:44:12.887Z,15.10
2019-03-25T00:45:12.871Z,14.10
2019-03-25T00:46:12.871Z,14.80
2019-03-25T00:47:12.848Z,16.10
2019-03-25T00:48:12.847Z,13.70
2019-03-25T00:49:12.847Z,15.00
2019-03-25T00:50:12.820Z,11.80
2019-03-25T00:51:12.808Z,12.50
2019-03-25T00:52:12.791Z,11.20
2019-03-25T00:53:12.792Z,14.30
2019-03-25T00:54:12.789Z,16.10
2019-03-25T00:55:12.767Z,15.10
2019-03-25T00:56:12.757Z,11.70
2019-03-25T00:57:12.748Z,12.50
2019-03-25T00:58:12.725Z,14.00
2019-03-25T00:59:12.719Z,13.00
2019-03-25T01:00:12.725Z,15.40
2019-03-25T01:01:12.729Z,16.90
2019-03-25T01:02:12.689Z,10.20
2019-03-25T01:03:12.682Z,13.00
2019-03-25T01:04:12.728Z,13.20
2019-03-25T01:05:12.652Z,15.80
2019-03-25T01:06:12.636Z,10.80
2019-03-25T01:07:12.748Z,11.70
2019-03-25T01:08:12.622Z,14.70
2019-03-25T01:09:12.609Z,9.90
2019-03-25T01:10:12.610Z,15.80
2019-03-25T01:11:12.586Z,12.50
2019-03-25T01:12:12.582Z,14.30
2019-03-25T01:13:12.571Z,15.60
2019-03-25T01:14:12.558Z,14.00
2019-03-25T01:15:12.544Z,14.30
2019-03-25T01:16:12.538Z,11.40
2019-03-25T01:17:12.529Z,13.40
2019-03-25T01:18:17.039Z,17.20
2019-03-25T01:19:12.495Z,11.40
2019-03-25T01:20:12.549Z,16.40
2019-03-25T01:21:12.478Z,10.70
2019-03-25T01:22:12.476Z,12.20
2019-03-25T01:23:12.484Z,11.70
2019-03-25T01:24:12.452Z,13.20
2019-03-25T01:25:12.503Z,16.50
2019-03-25T01:26:12.421Z,19.80
2019-03-25T01:27:12.411Z,13.80
2019-03-25T01:28:12.404Z,13.00
2019-03-25T01:29:12.422Z,10.90
2019-03-25T01:30:12.417Z,13.40
2019-03-25T01:31:12.388Z,10.50
2019-03-25T01:32:12.357Z,14.10
2019-03-25T01:33:12.355Z,13.50
2019-03-25T01:34:12.337Z,12.30
2019-03-25T01:35:12.321Z,13.20
2019-03-25T01:36:12.367Z,13.50
2019-03-25T01:37:12.300Z,19.10
2019-03-25T01:38:12.289Z,12.50
2019-03-25T01:39:12.285Z,14.50
2019-03-25T01:40:12.276Z,12.30
2019-03-25T01:41:12.267Z,9.50
2019-03-25T01:42:12.261Z,12.70
2019-03-25T01:43:12.378Z,15.20
2019-03-25T01:44:12.231Z,12.20
2019-03-25T01:45:12.225Z,15.20
2019-03-25T01:46:12.225Z,14.10
2019-03-25T01:47:12.190Z,12.60
2019-03-25T01:48:12.186Z,11.90
2019-03-25T01:49:12.173Z,10.20
2019-03-25T01:50:12.176Z,11.90
2019-03-25T01:51:12.179Z,11.70
2019-03-25T01:52:12.153Z,12.10
2019-03-25T01:53:12.142Z,10.90
2019-03-25T01:54:12.115Z,13.80
2019-03-25T01:55:13.729Z,12.90
2019-03-25T01:56:12.103Z,14.00
2019-03-25T01:57:12.098Z,12.70
2019-03-25T01:58:12.077Z,11.40
2019-03-25T01:59:12.060Z,12.40
2019-03-25T02:00:12.055Z,11.70
2019-03-25T02:01:12.044Z,11.00
2019-03-25T02:02:12.033Z,13.00
2019-03-25T02:03:12.019Z,12.90
2019-03-25T02:04:12.015Z,14.90
2019-03-25T02:05:12.007Z,13.10
2019-03-25T02:06:11.993Z,15.10
2019-03-25T02:07:11.994Z,12.30
2019-03-25T02:08:11.967Z,12.50
2019-03-25T02:09:11.973Z,12.40
2019-03-25T02:10:11.945Z,12.70
2019-03-25T02:11:11.933Z,10.90
2019-03-25T02:12:11.926Z,13.70
2019-03-25T02:13:11.911Z,16.40
2019-03-25T02:14:11.912Z,11.90
2019-03-25T02:15:11.894Z,14.50
2019-03-25T02:16:11.880Z,16.60
2019-03-25T02:17:11.862Z,18.00
2019-03-25T02:18:11.858Z,15.10
2019-03-25T02:19:11.858Z,14.60
2019-03-25T02:20:11.838Z,14.60
2019-03-25T02:21:11.848Z,12.30
2019-03-25T02:22:11.813Z,12.70
2019-03-25T02:23:11.921Z,10.40
2019-03-25T02:24:11.919Z,11.50
2019-03-25T02:25:11.787Z,13.00
2019-03-25T02:26:11.807Z,10.90
2019-03-25T02:27:11.763Z,15.60
2019-03-25T02:28:11.746Z,14.90
2019-03-25T02:29:11.734Z,16.80
2019-03-25T02:30:11.729Z,13.90
2019-03-25T02:31:11.726Z,11.40
2019-03-25T02:32:11.714Z,13.70
2019-03-25T02:33:11.688Z,9.90
2019-03-25T02:34:11.680Z,14.30
2019-03-25T02:35:11.678Z,14.90
2019-03-25T02:36:11.664Z,10.50
2019-03-25T02:37:11.650Z,13.30
2019-03-25T02:38:11.647Z,14.70
2019-03-25T02:39:11.630Z,11.60
2019-03-25T02:40:11.618Z,10.80
2019-03-25T02:41:11.639Z,13.70
2019-03-25T02:42:11.599Z,16.80
2019-03-25T02:43:11.591Z,11.20
2019-03-25T02:44:11.583Z,14.20
2019-03-25T02:45:11.557Z,11.60
2019-03-25T02:46:11.555Z,13.50
2019-03-25T02:47:11.544Z,11.60
2019-03-25T02:48:11.554Z,14.80
2019-03-25T02:49:11.557Z,10.90
2019-03-25T02:50:11.504Z,12.50
2019-03-25T02:51:11.500Z,10.00
2019-03-25T02:52:11.487Z,16.50
2019-03-25T02:53:11.490Z,13.60
2019-03-25T02:54:11.474Z,17.00
2019-03-25T02:55:11.479Z,11.60
2019-03-25T02:56:11.436Z,11.80
2019-03-25T02:57:11.438Z,11.40
2019-03-25T02:58:11.421Z,14.90
2019-03-25T02:59:11.459Z,15.70
2019-03-25T03:00:11.455Z,10.60
2019-03-25T03:01:11.410Z,12.30
2019-03-25T03:02:11.370Z,11.40
2019-03-25T03:03:11.373Z,14.00
2019-03-25T03:04:11.357Z,13.90
2019-03-25T03:05:11.343Z,10.70
2019-03-25T03:06:11.355Z,11.00
2019-03-25T03:07:11.345Z,14.40
2019-03-25T03:08:11.309Z,10.40
2019-03-25T03:09:11.311Z,12.00
2019-03-25T03:10:11.295Z,12.50
2019-03-25T03:11:11.283Z,10.70
2019-03-25T03:12:11.278Z,14.90
2019-03-25T03:13:11.263Z,10.40
2019-03-25T03:14:14.915Z,10.10
2019-03-25T03:15:11.334Z,9.90
2019-03-25T03:16:11.230Z,11.50
2019-03-25T03:17:11.247Z,12.30
2019-03-25T03:18:11.214Z,12.60
2019-03-25T03:19:11.191Z,13.70
2019-03-25T03:20:11.179Z,11.70
2019-03-25T03:21:11.175Z,13.10
2019-03-25T03:22:11.165Z,15.10
2019-03-25T03:23:11.197Z,14.20
2019-03-25T03:24:11.150Z,14.80
2019-03-25T03:25:11.129Z,11.10
2019-03-25T03:26:11.128Z,12.10
2019-03-25T03:27:11.108Z,13.40
2019-03-25T03:28:11.122Z,14.30
2019-03-25T03:29:11.156Z,13.00
2019-03-25T03:30:11.084Z,14.80
2019-03-25T03:31:11.059Z,12.50
2019-03-25T03:32:11.058Z,9.30
2019-03-25T03:33:11.046Z,10.40
2019-03-25T03:34:11.054Z,15.30
2019-03-25T03:35:11.041Z,15.30
2019-03-25T03:36:11.038Z,11.10
2019-03-25T03:37:11.008Z,11.80
2019-03-25T03:38:10.981Z,12.00
2019-03-25T03:39:10.986Z,10.90
2019-03-25T03:40:11.002Z,11.60
2019-03-25T03:41:10.962Z,12.20
2019-03-25T03:42:10.949Z,12.00
2019-03-25T03:43:10.935Z,16.10
2019-03-25T03:44:10.920Z,9.30
2019-03-25T03:45:18.640Z,16.10
2019-03-25T03:46:52.585Z,11.40
2019-03-25T03:47:52.644Z,11.40
2019-03-25T03:49:34.202Z,12.80
2019-03-25T03:50:34.197Z,10.10
2019-03-25T03:52:15.871Z,11.70
2019-03-25T03:53:16.856Z,11.90
2019-03-25T03:54:57.528Z,10.70
2019-03-25T03:56:12.058Z,11.50
2019-03-25T03:56:58.543Z,8.90
2019-03-25T03:57:57.479Z,13.60
2019-03-25T03:58:57.466Z,13.20
2019-03-25T03:59:57.456Z,11.00
2019-03-25T04:00:57.452Z,10.10
2019-03-25T04:01:57.430Z,14.80
2019-03-25T04:02:57.423Z,13.60
2019-03-25T04:03:57.408Z,10.10
2019-03-25T04:04:57.401Z,11.80
2019-03-25T04:05:57.387Z,9.10
2019-03-25T04:06:57.382Z,12.30
2019-03-25T04:07:57.462Z,15.30
2019-03-25T04:08:57.359Z,12.30
2019-03-25T04:09:57.417Z,12.40
2019-03-25T04:10:57.334Z,11.10
2019-03-25T04:11:57.334Z,11.70
2019-03-25T04:12:57.329Z,11.60
2019-03-25T04:13:57.304Z,11.20
2019-03-25T04:14:57.294Z,11.20
2019-03-25T04:16:01.085Z,14.40
2019-03-25T04:16:57.281Z,13.00
2019-03-25T04:17:57.329Z,12.30
2019-03-25T04:18:57.262Z,12.10
2019-03-25T04:19:57.233Z,11.50
2019-03-25T04:20:57.221Z,7.90
2019-03-25T04:21:57.231Z,9.90
2019-03-25T04:22:57.223Z,13.20
2019-03-25T04:23:57.196Z,10.90
2019-03-25T04:24:57.196Z,12.50
2019-03-25T04:25:57.167Z,11.70
2019-03-25T04:26:57.162Z,13.30
2019-03-25T04:27:57.142Z,13.60
2019-03-25T04:28:57.131Z,7.70
2019-03-25T04:29:57.128Z,14.20
2019-03-25T04:30:57.119Z,12.40
2019-03-25T04:31:57.116Z,12.60
2019-03-25T04:32:57.102Z,10.80
2019-03-25T04:33:57.098Z,15.50
2019-03-25T04:34:57.080Z,12.10
2019-03-25T04:35:57.070Z,11.00
2019-03-25T04:36:57.058Z,10.90
2019-03-25T04:37:57.039Z,12.80
2019-03-25T04:38:57.033Z,10.70
2019-03-25T04:39:57.018Z,12.70
2019-03-25T04:40:57.004Z,13.20
2019-03-25T04:41:56.992Z,14.30
2019-03-25T04:42:56.983Z,13.30
2019-03-25T04:43:56.971Z,10.30
2019-03-25T04:44:56.968Z,12.90
2019-03-25T04:45:56.953Z,12.00
2019-03-25T04:46:56.957Z,10.20
2019-03-25T04:47:56.929Z,12.80
2019-03-25T04:48:56.916Z,15.80
2019-03-25T04:49:56.906Z,11.60
2019-03-25T04:50:56.906Z,12.30
2019-03-25T04:51:56.891Z,11.10
2019-03-25T04:52:56.898Z,17.60
2019-03-25T04:53:56.858Z,8.90
2019-03-25T04:54:56.864Z,12.00
2019-03-25T04:55:56.842Z,13.00
2019-03-25T04:56:56.827Z,12.20
2019-03-25T04:57:56.823Z,9.90
2019-03-25T04:58:56.833Z,12.90
2019-03-25T04:59:56.793Z,10.20
2019-03-25T05:00:56.790Z,10.10
2019-03-25T05:01:56.771Z,9.40
2019-03-25T05:02:56.763Z,10.80
2019-03-25T05:03:56.765Z,10.00
2019-03-25T05:04:56.745Z,12.20
2019-03-25T05:05:56.733Z,8.60
2019-03-25T05:06:56.717Z,14.30
2019-03-25T05:07:56.714Z,10.90
2019-03-25T05:08:56.693Z,12.40
2019-03-25T05:09:56.688Z,9.50
2019-03-25T05:10:56.678Z,9.10
2019-03-25T05:11:56.666Z,13.20
2019-03-25T05:12:56.661Z,14.80
2019-03-25T05:13:56.652Z,11.30
2019-03-25T05:14:56.649Z,9.80
2019-03-25T05:15:56.618Z,19.50
2019-03-25T05:16:56.695Z,12.30
2019-03-25T05:17:56.605Z,12.60
2019-03-25T05:18:56.587Z,12.90
2019-03-25T05:19:56.583Z,12.40
2019-03-25T05:20:56.567Z,7.70
2019-03-25T05:21:56.570Z,10.50
2019-03-25T05:22:56.555Z,10.80
2019-03-25T05:23:56.546Z,10.20
2019-03-25T05:24:56.524Z,11.80
2019-03-25T05:25:56.516Z,12.50
2019-03-25T05:26:56.509Z,9.90
2019-03-25T05:27:56.485Z,11.00
2019-03-25T05:28:56.477Z,15.00
2019-03-25T05:29:56.459Z,12.00
2019-03-25T05:30:56.462Z,9.90
2019-03-25T05:31:56.457Z,8.20
2019-03-25T05:32:56.435Z,11.10
2019-03-25T05:33:56.431Z,12.00
2019-03-25T05:34:56.423Z,13.20
2019-03-25T05:35:56.401Z,9.80
2019-03-25T05:36:56.391Z,11.70
2019-03-25T05:37:56.407Z,10.80
2019-03-25T05:38:56.368Z,10.10
2019-03-25T05:39:56.357Z,10.60
2019-03-25T05:40:56.342Z,11.30
2019-03-25T05:41:56.334Z,9.90
2019-03-25T05:42:56.331Z,10.60
2019-03-25T05:43:56.326Z,10.60
2019-03-25T05:44:56.301Z,10.40
2019-03-25T05:45:56.311Z,11.60
2019-03-25T05:46:56.274Z,10.60
2019-03-25T05:47:56.271Z,13.70
2019-03-25T05:48:56.262Z,18.30
2019-03-25T05:49:56.275Z,11.70
2019-03-25T05:50:56.236Z,17.30
2019-03-25T05:51:56.226Z,17.70
2019-03-25T05:52:56.222Z,15.60
2019-03-25T05:53:56.201Z,13.30
2019-03-25T05:54:56.195Z,13.40
2019-03-25T05:55:56.175Z,16.10
2019-03-25T05:57:02.485Z,10.80
2019-03-25T05:57:57.163Z,12.00
2019-03-25T05:58:56.180Z,16.20
2019-03-25T05:59:56.135Z,13.30
2019-03-25T06:00:56.124Z,13.00
2019-03-25T06:01:56.138Z,11.00
2019-03-25T06:02:56.129Z,12.00
2019-03-25T06:03:56.109Z,17.10
2019-03-25T06:04:56.091Z,12.80
2019-03-25T06:05:56.125Z,16.80
2019-03-25T06:06:56.062Z,15.10
2019-03-25T06:07:56.050Z,14.80
2019-03-25T06:08:56.048Z,14.50
2019-03-25T06:09:56.036Z,16.40
2019-03-25T06:10:56.016Z,16.00
2019-03-25T06:11:56.002Z,14.30
2019-03-25T06:12:56.010Z,11.80
2019-03-25T06:13:55.987Z,14.80
2019-03-25T06:14:55.975Z,12.80
2019-03-25T06:15:55.974Z,12.20
2019-03-25T06:16:55.948Z,15.20
2019-03-25T06:17:55.944Z,15.90
2019-03-25T06:18:55.933Z,17.20
2019-03-25T06:19:55.919Z,15.20
2019-03-25T06:20:55.940Z,12.20
2019-03-25T06:21:55.894Z,15.10
2019-03-25T06:22:55.886Z,16.60
2019-03-25T06:23:55.888Z,19.60
2019-03-25T06:24:55.876Z,13.30
2019-03-25T06:25:55.866Z,14.10
2019-03-25T06:26:55.856Z,18.00
2019-03-25T06:27:55.829Z,18.10
2019-03-25T06:28:55.818Z,11.80
2019-03-25T06:29:55.830Z,14.10
2019-03-25T06:30:55.819Z,12.20
2019-03-25T06:31:55.790Z,15.40
2019-03-25T06:32:55.770Z,16.10
2019-03-25T06:33:55.795Z,12.50
2019-03-25T06:34:55.750Z,17.80
2019-03-25T06:35:55.793Z,14.00
2019-03-25T06:36:55.735Z,13.90
2019-03-25T06:37:55.727Z,14.50
2019-03-25T06:38:55.695Z,14.30
2019-03-25T06:39:55.690Z,14.10
2019-03-25T06:40:55.679Z,14.90
2019-03-25T06:41:55.672Z,10.00
2019-03-25T06:42:55.731Z,12.00
2019-03-25T06:43:55.664Z,10.50
2019-03-25T06:44:55.674Z,9.50
2019-03-25T06:45:55.635Z,9.40
2019-03-25T06:46:55.629Z,10.30
2019-03-25T06:47:55.609Z,9.50
2019-03-25T06:48:55.611Z,10.00
2019-03-25T06:49:55.636Z,8.10
2019-03-25T06:50:55.577Z,8.40
2019-03-25T06:51:55.596Z,6.90
2019-03-25T06:52:55.583Z,7.10
2019-03-25T06:53:55.555Z,7.80
2019-03-25T06:54:55.539Z,6.60
2019-03-25T06:55:55.516Z,9.00
2019-03-25T06:56:55.513Z,6.50
2019-03-25T06:57:55.503Z,5.50
2019-03-25T06:58:55.485Z,7.90
2019-03-25T06:59:55.480Z,9.60
2019-03-25T07:00:55.484Z,8.70
2019-03-25T07:01:55.458Z,9.70
2019-03-25T07:02:55.445Z,9.30
2019-03-25T07:03:55.448Z,8.20
2019-03-25T07:04:55.433Z,9.80
2019-03-25T07:05:55.425Z,10.40
2019-03-25T07:06:55.402Z,7.80
2019-03-25T07:07:55.393Z,8.40
2019-03-25T07:08:55.387Z,7.00
2019-03-25T07:09:55.366Z,7.20
2019-03-25T07:10:55.364Z,6.00
2019-03-25T07:11:55.352Z,9.50
2019-03-25T07:12:55.345Z,7.20
2019-03-25T07:13:55.336Z,8.10
2019-03-25T07:14:55.316Z,6.90
2019-03-25T07:15:55.427Z,6.80
2019-03-25T07:16:55.304Z,8.90
2019-03-25T07:17:55.278Z,8.30
2019-03-25T07:18:55.271Z,7.30
2019-03-25T07:19:55.305Z,7.00
2019-03-25T07:20:55.250Z,6.90
2019-03-25T07:21:55.246Z,6.30
2019-03-25T07:22:55.235Z,7.80
2019-03-25T07:23:55.215Z,8.40
2019-03-25T07:24:55.203Z,9.30
2019-03-25T07:25:55.200Z,7.80
2019-03-25T07:26:55.636Z,8.90
2019-03-25T07:27:55.177Z,8.90
2019-03-25T07:28:55.225Z,8.10
2019-03-25T07:29:55.155Z,8.90
2019-03-25T07:30:55.145Z,10.60
2019-03-25T07:31:55.138Z,10.20
2019-03-25T07:32:55.115Z,11.60
2019-03-25T07:33:55.118Z,11.70
2019-03-25T07:34:55.096Z,11.20
2019-03-25T07:35:55.100Z,11.80
2019-03-25T07:36:55.077Z,11.60
2019-03-25T07:37:55.070Z,11.90
2019-03-25T07:38:55.048Z,12.80
2019-03-25T07:39:55.045Z,13.60
2019-03-25T07:40:55.029Z,12.50
2019-03-25T07:41:55.013Z,13.30
2019-03-25T07:42:55.026Z,13.40
2019-03-25T07:43:55.005Z,12.70
2019-03-25T07:44:55.010Z,13.10
2019-03-25T07:45:54.972Z,12.60
2019-03-25T07:46:54.962Z,11.30
2019-03-25T07:47:54.950Z,14.80
2019-03-25T07:48:54.944Z,13.10
2019-03-25T07:49:54.944Z,15.00
2019-03-25T07:50:54.948Z,11.30
2019-03-25T07:51:54.910Z,12.80
2019-03-25T07:52:54.912Z,11.50
2019-03-25T07:53:54.894Z,13.50
2019-03-25T07:54:54.898Z,14.30
2019-03-25T07:55:54.870Z,11.40
2019-03-25T07:56:54.890Z,10.10
2019-03-25T07:57:54.890Z,13.20
2019-03-25T07:58:54.855Z,11.30
2019-03-25T07:59:54.937Z,11.40
2019-03-25T08:00:54.847Z,13.40
2019-03-25T08:01:54.836Z,12.50
2019-03-25T08:02:54.799Z,12.80
2019-03-25T08:03:54.801Z,11.90
2019-03-25T08:04:54.761Z,12.30
2019-03-25T08:05:54.762Z,9.90
2019-03-25T08:06:54.776Z,11.20
2019-03-25T08:07:54.898Z,12.50
2019-03-25T08:09:03.299Z,11.60
2019-03-25T08:09:55.714Z,9.30
2019-03-25T08:10:54.701Z,12.10
2019-03-25T08:11:54.692Z,12.20
2019-03-25T08:12:54.776Z,10.50
2019-03-25T08:13:54.670Z,11.20
2019-03-25T08:14:54.650Z,11.30
2019-03-25T08:15:54.727Z,8.70
2019-03-25T08:16:54.633Z,10.20
2019-03-25T08:17:54.633Z,10.30
2019-03-25T08:18:54.620Z,11.90
2019-03-25T08:19:54.595Z,9.80
2019-03-25T08:20:54.579Z,8.10
2019-03-25T08:21:54.569Z,8.90
2019-03-25T08:22:54.570Z,8.10
2019-03-25T08:23:54.553Z,9.90
2019-03-25T08:24:54.631Z,8.20
2019-03-25T08:25:54.532Z,7.80
2019-03-25T08:26:54.524Z,7.60
2019-03-25T08:28:00.001Z,7.60
2019-03-25T08:28:55.498Z,7.60
2019-03-25T08:29:54.492Z,7.90
2019-03-25T08:30:54.478Z,8.50
2019-03-25T08:31:54.467Z,10.40
2019-03-25T08:32:54.470Z,7.80
2019-03-25T08:33:54.438Z,7.50
2019-03-25T08:34:54.440Z,7.90
2019-03-25T08:35:54.416Z,7.70
2019-03-25T08:36:54.402Z,6.60
2019-03-25T08:37:54.410Z,8.70
2019-03-25T08:38:54.384Z,8.70
2019-03-25T08:39:54.385Z,8.80
2019-03-25T08:40:54.363Z,9.00
2019-03-25T08:41:54.402Z,9.40
2019-03-25T08:42:54.334Z,7.40
2019-03-25T08:43:54.323Z,9.20
2019-03-25T08:44:54.316Z,7.90
2019-03-25T08:45:54.308Z,6.80
2019-03-25T08:46:54.292Z,5.60
2019-03-25T08:47:54.282Z,8.20
2019-03-25T08:48:54.269Z,7.30
2019-03-25T08:49:54.263Z,9.70
2019-03-25T08:50:54.271Z,8.00
2019-03-25T08:51:54.237Z,7.50
2019-03-25T08:52:54.229Z,7.90
2019-03-25T08:53:54.216Z,7.80
2019-03-25T08:54:54.207Z,8.50
2019-03-25T08:55:54.190Z,10.60
2019-03-25T08:56:54.181Z,9.80
2019-03-25T08:57:54.171Z,7.40
2019-03-25T08:58:54.165Z,8.50
2019-03-25T08:59:54.160Z,11.40
2019-03-25T09:00:54.150Z,7.80
2019-03-25T09:01:54.127Z,8.80
2019-03-25T09:02:54.113Z,7.00
2019-03-25T09:03:54.103Z,9.30
2019-03-25T09:04:54.093Z,6.80
2019-03-25T09:05:54.091Z,7.60
2019-03-25T09:06:54.069Z,8.60
2019-03-25T09:07:54.076Z,9.70
2019-03-25T09:08:54.050Z,8.30
2019-03-25T09:09:54.039Z,26.80
2019-03-25T09:10:54.022Z,8.60
2019-03-25T09:11:54.019Z,7.50
2019-03-25T09:12:54.004Z,6.90
2019-03-25T09:13:54.009Z,6.40
2019-03-25T09:14:53.991Z,7.60
2019-03-25T09:15:53.985Z,8.70
2019-03-25T09:16:53.966Z,7.40
2019-03-25T09:17:53.960Z,7.90
2019-03-25T09:18:53.945Z,7.90
2019-03-25T09:19:53.945Z,9.00
2019-03-25T09:20:53.916Z,7.60
2019-03-25T09:21:53.906Z,9.50
2019-03-25T09:22:53.938Z,8.40
2019-03-25T09:23:53.894Z,7.10
2019-03-25T09:24:53.884Z,7.70
2019-03-25T09:25:53.865Z,8.20
2019-03-25T09:26:53.863Z,7.30
2019-03-25T09:27:53.846Z,7.30
2019-03-25T09:28:53.836Z,7.20
2019-03-25T09:29:53.842Z,7.80
2019-03-25T09:30:53.823Z,8.90
2019-03-25T09:31:53.806Z,7.40
2019-03-25T09:32:53.792Z,6.10
2019-03-25T09:33:53.778Z,8.90
2019-03-25T09:34:53.766Z,8.20
2019-03-25T09:35:53.851Z,5.80
2019-03-25T09:36:53.771Z,7.80
2019-03-25T09:37:53.753Z,10.30
2019-03-25T09:38:53.724Z,8.60
2019-03-25T09:39:53.712Z,8.50
2019-03-25T09:40:53.750Z,7.20
2019-03-25T09:41:53.704Z,4.60
2019-03-25T09:42:53.688Z,7.00
2019-03-25T09:43:53.671Z,6.30
2019-03-25T09:44:53.695Z,5.60
2019-03-25T09:45:53.652Z,8.70
2019-03-25T09:46:53.645Z,5.30
2019-03-25T09:47:53.643Z,7.90
2019-03-25T09:48:53.630Z,4.60
2019-03-25T09:49:53.600Z,8.10
2019-03-25T09:50:53.615Z,6.00
2019-03-25T09:51:53.585Z,6.20
2019-03-25T09:52:53.593Z,8.60
2019-03-25T09:53:53.555Z,9.40
2019-03-25T09:54:53.541Z,9.90
2019-03-25T09:55:53.533Z,6.10
2019-03-25T09:56:53.545Z,6.30
2019-03-25T09:57:53.519Z,10.10
2019-03-25T09:58:53.512Z,7.60
2019-03-25T09:59:53.499Z,8.70
2019-03-25T10:00:53.485Z,12.70
2019-03-25T10:01:53.481Z,6.90
2019-03-25T10:02:53.460Z,7.10
2019-03-25T10:03:53.467Z,8.40
2019-03-25T10:04:53.432Z,10.70
2019-03-25T10:05:53.442Z,8.50
2019-03-25T10:06:53.421Z,10.80
2019-03-25T10:07:53.411Z,9.50
2019-03-25T10:08:53.400Z,7.30
2019-03-25T10:09:53.394Z,11.20
2019-03-25T10:10:53.375Z,8.00
2019-03-25T10:11:53.362Z,9.00
2019-03-25T10:12:53.361Z,10.30
2019-03-25T10:13:53.355Z,7.20
2019-03-25T10:14:53.337Z,8.40
2019-03-25T10:15:53.338Z,8.90
2019-03-25T10:16:53.337Z,5.80
2019-03-25T10:17:53.311Z,8.50
2019-03-25T10:18:53.293Z,6.40
2019-03-25T10:19:53.303Z,11.60
2019-03-25T10:20:53.272Z,8.60
2019-03-25T10:21:53.261Z,6.60
2019-03-25T10:22:53.238Z,10.30
2019-03-25T10:23:53.246Z,7.60
2019-03-25T10:24:53.224Z,5.30
2019-03-25T10:25:53.213Z,5.40
2019-03-25T10:26:53.196Z,8.70
2019-03-25T10:27:53.180Z,8.80
2019-03-25T10:28:53.171Z,7.50
2019-03-25T10:29:53.183Z,8.00
2019-03-25T10:30:53.153Z,9.60
2019-03-25T10:31:53.222Z,8.00
2019-03-25T10:32:53.127Z,7.20
2019-03-25T10:33:53.126Z,8.30
2019-03-25T10:34:53.103Z,9.00
2019-03-25T10:35:53.089Z,9.40
2019-03-25T10:36:53.085Z,4.50
2019-03-25T10:37:53.068Z,11.60
2019-03-25T10:38:53.068Z,6.60
2019-03-25T10:39:53.060Z,5.80
2019-03-25T10:40:53.105Z,7.00
2019-03-25T10:41:53.080Z,8.10
2019-03-25T10:42:53.034Z,8.00
2019-03-25T10:43:53.007Z,10.60
2019-03-25T10:44:53.049Z,6.10
2019-03-25T10:45:53.013Z,9.00
2019-03-25T10:46:52.976Z,11.00
2019-03-25T10:47:52.975Z,8.30
2019-03-25T10:48:52.961Z,10.20
2019-03-25T10:49:52.937Z,6.60
2019-03-25T10:50:52.931Z,7.30
2019-03-25T10:51:52.913Z,6.00
2019-03-25T10:52:52.902Z,5.30
2019-03-25T10:53:52.897Z,7.80
2019-03-25T10:54:53.013Z,8.60
2019-03-25T10:55:52.877Z,7.50
2019-03-25T10:56:52.858Z,9.70
2019-03-25T10:57:52.842Z,7.10
2019-03-25T10:58:58.101Z,9.80
2019-03-25T10:59:53.823Z,6.40
2019-03-25T11:00:52.811Z,11.20
2019-03-25T11:01:52.798Z,7.90
2019-03-25T11:02:52.801Z,8.60
2019-03-25T11:03:52.774Z,8.30
2019-03-25T11:04:52.773Z,6.60
2019-03-25T11:05:52.751Z,8.50
2019-03-25T11:06:52.786Z,7.90
2019-03-25T11:07:52.731Z,6.90
2019-03-25T11:08:52.726Z,5.80
2019-03-25T11:09:52.708Z,7.40
2019-03-25T11:10:52.693Z,9.10
2019-03-25T11:11:52.684Z,8.20
2019-03-25T11:12:52.679Z,8.00
2019-03-25T11:13:52.668Z,7.20
2019-03-25T11:14:52.658Z,6.80
2019-03-25T11:15:52.650Z,6.70
2019-03-25T11:17:01.327Z,7.30
2019-03-25T11:18:34.831Z,7.30
2019-03-25T11:19:34.806Z,6.40
2019-03-25T11:20:34.808Z,5.40
2019-03-25T11:21:34.794Z,6.80
2019-03-25T11:22:34.833Z,5.40
2019-03-25T11:23:34.758Z,5.00
2019-03-25T11:24:34.773Z,8.10
2019-03-25T11:25:34.742Z,7.20
2019-03-25T11:26:34.736Z,7.90
2019-03-25T11:27:34.742Z,7.70
2019-03-25T11:28:34.701Z,7.30
2019-03-25T11:29:34.704Z,7.30
2019-03-25T11:30:34.710Z,5.50
2019-03-25T11:31:34.682Z,8.90
2019-03-25T11:32:34.718Z,5.60
2019-03-25T11:33:34.667Z,4.60
2019-03-25T11:34:34.711Z,7.70
2019-03-25T11:35:34.637Z,7.40
2019-03-25T11:36:34.637Z,5.00
2019-03-25T11:37:34.615Z,7.90
2019-03-25T11:38:34.613Z,4.70
2019-03-25T11:39:34.591Z,5.50
2019-03-25T11:40:34.600Z,6.40
2019-03-25T11:41:34.571Z,6.00
2019-03-25T11:42:34.572Z,3.20
2019-03-25T11:43:34.549Z,3.80
2019-03-25T11:44:34.554Z,3.40
2019-03-25T11:45:34.549Z,5.40
2019-03-25T11:46:34.521Z,3.70
2019-03-25T11:47:34.523Z,5.40
2019-03-25T11:48:34.515Z,3.40
2019-03-25T11:49:34.503Z,4.20
2019-03-25T11:50:34.483Z,5.90
2019-03-25T11:51:34.465Z,5.20
2019-03-25T11:52:34.448Z,5.80
2019-03-25T11:53:34.436Z,6.10
2019-03-25T11:54:34.508Z,5.80
2019-03-25T11:55:34.448Z,5.80
2019-03-25T11:56:34.430Z,6.70
2019-03-25T11:57:34.395Z,5.10
2019-03-25T11:58:34.388Z,7.40
2019-03-25T11:59:34.394Z,7.10
2019-03-25T12:00:34.441Z,4.40
2019-03-25T12:01:34.386Z,7.00
2019-03-25T12:02:34.360Z,6.90
2019-03-25T12:03:34.349Z,8.70
2019-03-25T12:04:34.323Z,4.10
2019-03-25T12:05:34.316Z,8.40
2019-03-25T12:06:34.302Z,6.60
2019-03-25T12:07:34.302Z,6.00
2019-03-25T12:08:34.294Z,4.30
2019-03-25T12:09:34.292Z,6.70
2019-03-25T12:10:34.265Z,7.10
2019-03-25T12:11:34.261Z,7.80
2019-03-25T12:12:34.245Z,5.70
2019-03-25T12:13:34.238Z,4.80
2019-03-25T12:14:34.221Z,6.20
2019-03-25T12:15:34.202Z,4.00
2019-03-25T12:16:34.205Z,5.60
2019-03-25T12:17:34.185Z,6.90
2019-03-25T12:18:34.189Z,9.30
2019-03-25T12:19:34.165Z,4.00
2019-03-25T12:20:34.155Z,5.50
2019-03-25T12:21:34.143Z,5.50
2019-03-25T12:22:34.134Z,4.10
2019-03-25T12:23:34.130Z,5.30
2019-03-25T12:24:34.110Z,5.70
2019-03-25T12:25:34.094Z,6.40
2019-03-25T12:26:34.088Z,3.60
2019-03-25T12:27:34.137Z,4.10
2019-03-25T12:28:34.068Z,6.50
2019-03-25T12:29:34.089Z,4.40
2019-03-25T12:30:34.042Z,4.60
2019-03-25T12:31:34.030Z,4.70
2019-03-25T12:32:34.015Z,4.60
2019-03-25T12:33:34.008Z,3.40
2019-03-25T12:34:34.093Z,4.00
2019-03-25T12:35:34.017Z,7.40
2019-03-25T12:36:33.979Z,5.60
2019-03-25T12:37:33.966Z,4.80
2019-03-25T12:38:33.946Z,4.00
2019-03-25T12:39:33.945Z,7.50
2019-03-25T12:40:33.929Z,3.00
2019-03-25T12:41:33.930Z,4.30
2019-03-25T12:42:33.904Z,8.70
2019-03-25T12:43:33.910Z,6.50
2019-03-25T12:44:33.891Z,6.30
2019-03-25T12:45:33.873Z,4.60
2019-03-25T12:46:33.890Z,4.60
2019-03-25T12:47:33.866Z,5.70
2019-03-25T12:48:33.840Z,4.10
2019-03-25T12:49:33.831Z,5.40
2019-03-25T12:50:33.837Z,4.80
2019-03-25T12:51:33.820Z,3.80
2019-03-25T12:52:33.798Z,6.50
2019-03-25T12:53:33.787Z,6.30
2019-03-25T12:54:33.777Z,6.10
2019-03-25T12:55:33.765Z,4.20
2019-03-25T12:56:33.759Z,3.90
2019-03-25T12:57:33.747Z,5.50
2019-03-25T12:58:33.750Z,4.80
2019-03-25T12:59:41.277Z,5.30
2019-03-25T13:00:34.710Z,6.00
2019-03-25T13:01:33.697Z,3.90
2019-03-25T13:02:33.693Z,4.70
2019-03-25T13:03:33.681Z,5.50
2019-03-25T13:04:33.662Z,5.30
2019-03-25T13:05:33.670Z,4.20
2019-03-25T13:06:33.685Z,5.50